Time;durP1;ratioP1;P1;durP2;ratioP2;P2;SDS_P1;SDS_P2;PMS_P1;PMS_P2;Temp;Humidity;BMP_temperature;BMP_pressure;BME280_temperature;BME280_humidity;BME280_pressure;Samples;Min_cycle;Max_cycle;Signal;HPM_P1;HPM_P2
2022/03/23 00:01:42;;;;;;;88.55;41.90;;;;;;;4.69;47.39;101921.81;5013073;28;20029;-77
2022/03/23 00:04:09;;;;;;;93.43;43.53;;;;;;;4.71;47.17;101933.53;5012115;28;20077;-77
2022/03/23 00:06:35;;;;;;;98.88;44.78;;;;;;;4.66;47.10;101925.44;5025924;28;20105;-77
2022/03/23 00:09:01;;;;;;;95.57;44.65;;;;;;;4.60;47.02;101935.50;5015645;28;20120;-77
2022/03/23 00:11:27;;;;;;;107.50;46.45;;;;;;;4.53;47.70;101933.47;5031432;28;20094;-77
2022/03/23 00:13:54;;;;;;;104.80;44.60;;;;;;;4.44;47.13;101915.31;4998861;28;20033;-77
2022/03/23 00:16:21;;;;;;;98.63;44.28;;;;;;;4.46;47.82;101932.63;5031665;28;20041;-76
2022/03/23 00:18:54;;;;;;;97.38;42.10;;;;;;;4.41;48.02;101916.91;5015285;28;20174;-76
2022/03/23 00:21:20;;;;;;;97.80;43.35;;;;;;;4.47;47.96;101922.97;5032743;28;20065;-76
2022/03/23 00:23:46;;;;;;;103.30;44.13;;;;;;;4.45;48.40;101914.91;5033017;28;20033;-76
2022/03/23 00:26:14;;;;;;;93.97;42.45;;;;;;;4.43;47.67;101908.88;5032898;28;20371;-77
2022/03/23 00:28:39;;;;;;;88.53;41.10;;;;;;;4.45;47.46;101911.28;5032570;28;20052;-77
2022/03/23 00:31:07;;;;;;;87.82;39.88;;;;;;;4.43;48.12;101899.59;5031466;28;20049;-77
2022/03/23 00:33:41;;;;;;;85.55;38.95;;;;;;;4.45;48.42;101906.44;5031490;28;20036;-77
2022/03/23 00:36:09;;;;;;;84.43;39.03;;;;;;;4.45;48.30;101909.25;5032660;28;20035;-76
2022/03/23 00:38:35;;;;;;;85.55;40.75;;;;;;;4.45;47.75;101905.63;5031604;28;20103;-76
2022/03/23 00:41:11;;;;;;;90.25;42.25;;;;;;;4.41;48.22;101894.34;5031354;28;20043;-77
2022/03/23 00:43:38;;;;;;;86.22;37.95;;;;;;;4.39;47.83;101893.91;5012019;28;20394;-77
2022/03/23 00:46:08;;;;;;;80.90;38.97;;;;;;;4.35;48.53;101888.28;4995843;28;20069;-77
2022/03/23 00:48:34;;;;;;;86.80;38.30;;;;;;;4.34;47.83;101889.47;5012383;28;20113;-77
2022/03/23 00:50:59;;;;;;;82.43;37.53;;;;;;;4.29;48.58;101878.56;5011660;28;20117;-76
2022/03/23 00:53:47;;;;;;;86.75;42.00;;;;;;;4.36;48.06;101883.44;5011267;28;20030;-75
2022/03/23 00:56:13;;;;;;;97.82;40.35;;;;;;;4.39;48.37;101893.91;5013221;28;20112;-77
2022/03/23 00:58:44;;;;;;;95.00;43.42;;;;;;;4.37;48.70;101884.25;5013993;28;20128;-76
2022/03/23 01:01:16;;;;;;;87.38;41.22;;;;;;;4.35;48.09;101885.44;5014597;28;20045;-76
2022/03/23 01:03:42;;;;;;;99.10;42.55;;;;;;;4.32;48.61;101877.00;5014280;28;20025;-76
2022/03/23 01:06:09;;;;;;;92.90;42.70;;;;;;;4.35;48.44;101882.63;5014450;28;20116;-77
2022/03/23 01:08:36;;;;;;;101.38;43.67;;;;;;;4.31;48.68;101873.34;5015533;28;20056;-77
2022/03/23 01:11:02;;;;;;;92.22;42.63;;;;;;;4.23;48.35;101871.72;5021638;28;20109;-76
2022/03/23 01:13:27;;;;;;;92.55;41.17;;;;;;;4.23;48.42;101874.53;5017203;28;20065;-77
2022/03/23 01:15:53;;;;;;;98.50;45.15;;;;;;;4.15;48.64;101869.25;5017980;28;20030;-76
2022/03/23 01:18:20;;;;;;;91.30;42.90;;;;;;;4.05;49.17;101873.63;5016943;28;20033;-76
2022/03/23 01:20:48;;;;;;;104.45;45.17;;;;;;;3.88;49.01;101855.47;5017784;28;20029;-77
2022/03/23 01:23:15;;;;;;;102.00;47.13;;;;;;;3.88;49.20;101869.56;5018685;28;20037;-76
2022/03/23 01:25:40;;;;;;;110.65;46.40;;;;;;;3.84;49.88;101867.94;5016343;28;20336;-76
2022/03/23 01:28:06;;;;;;;108.22;46.55;;;;;;;3.72;49.78;101862.59;5015844;28;20026;-77
2022/03/23 01:30:31;;;;;;;105.60;45.90;;;;;;;3.67;49.75;101858.16;5015687;28;20032;-77
2022/03/23 01:32:56;;;;;;;100.78;45.03;;;;;;;3.63;50.44;101851.69;5014260;28;20034;-76
2022/03/23 01:35:24;;;;;;;102.38;44.67;;;;;;;3.61;49.88;101858.91;5029709;28;20098;-77
2022/03/23 01:37:50;;;;;;;100.80;44.33;;;;;;;3.62;50.42;101852.09;5035860;28;20034;-76
2022/03/23 01:40:16;;;;;;;92.50;45.33;;;;;;;3.58;49.93;101860.53;5035206;28;20029;-75
2022/03/23 01:42:43;;;;;;;106.10;46.30;;;;;;;3.53;49.83;101868.53;5035079;28;20060;-75
2022/03/23 01:45:10;;;;;;;95.82;44.95;;;;;;;3.43;49.78;101861.63;5033722;28;20132;-77
2022/03/23 01:47:36;;;;;;;105.13;45.30;;;;;;;3.40;50.06;101865.25;5035536;28;20029;-75
2022/03/23 01:50:05;;;;;;;98.22;44.70;;;;;;;3.29;50.24;101861.53;5033330;28;20045;-76
2022/03/23 01:52:32;;;;;;;102.40;43.72;;;;;;;3.31;50.16;101861.94;5001617;28;20029;-77
2022/03/23 01:55:02;;;;;;;91.38;43.53;;;;;;;3.25;50.40;101866.34;5017289;28;20386;-76
2022/03/23 01:57:29;;;;;;;91.43;44.42;;;;;;;3.16;51.00;101855.38;5017401;28;20387;-75
2022/03/23 01:59:57;;;;;;;100.88;45.15;;;;;;;3.20;52.37;101858.25;5033691;28;20030;-77
2022/03/23 02:02:25;;;;;;;101.35;46.55;;;;;;;3.21;52.78;101862.66;5034900;28;20041;-77
2022/03/23 02:04:51;;;;;;;87.28;42.30;;;;;;;3.22;52.54;101853.84;5034962;28;20056;-76
2022/03/23 02:07:18;;;;;;;92.95;42.65;;;;;;;3.18;52.27;101849.38;5033025;28;20029;-76
2022/03/23 02:09:43;;;;;;;99.47;45.25;;;;;;;3.20;51.75;101849.81;5034716;28;20454;-76
2022/03/23 02:12:11;;;;;;;93.38;43.47;;;;;;;3.18;51.37;101849.38;5033596;28;20028;-76
2022/03/23 02:14:37;;;;;;;100.78;45.92;;;;;;;3.16;51.64;101852.56;5016991;28;20026;-77
2022/03/23 02:17:04;;;;;;;94.05;42.05;;;;;;;3.16;51.68;101851.78;5017123;28;20060;-77
2022/03/23 02:19:30;;;;;;;97.97;44.38;;;;;;;3.08;51.85;101850.91;5033622;28;20043;-76
2022/03/23 02:21:56;;;;;;;96.53;44.88;;;;;;;3.05;51.58;101854.50;5033328;28;20033;-77
2022/03/23 02:24:24;;;;;;;97.63;42.92;;;;;;;2.97;52.05;101850.00;5033596;28;20442;-77
2022/03/23 02:26:50;;;;;;;95.03;43.28;;;;;;;2.91;52.09;101849.56;5001603;28;20052;-75
2022/03/23 02:29:15;;;;;;;98.30;44.03;;;;;;;2.81;52.11;101841.81;5001347;28;20454;-76
2022/03/23 02:31:42;;;;;;;87.30;41.40;;;;;;;2.76;52.17;101852.66;5017145;28;20075;-77
2022/03/23 02:34:10;;;;;;;94.93;42.45;;;;;;;2.71;52.59;101853.81;5032896;28;20061;-76
2022/03/23 02:36:37;;;;;;;90.90;42.22;;;;;;;2.68;52.71;101851.75;5034296;28;20021;-77
2022/03/23 02:39:03;;;;;;;89.82;43.08;;;;;;;2.62;52.77;101864.53;5034434;28;20041;-77
2022/03/23 02:41:28;;;;;;;94.88;43.90;;;;;;;2.59;53.11;101859.69;5032834;28;20375;-75
2022/03/23 02:43:54;;;;;;;99.32;44.13;;;;;;;2.52;53.34;101854.81;5034016;28;20056;-77
2022/03/23 02:46:20;;;;;;;94.65;45.55;;;;;;;2.46;53.27;101867.63;5016343;28;20030;-77
2022/03/23 02:48:46;;;;;;;97.05;45.47;;;;;;;2.25;53.92;101836.44;5016333;28;20139;-76
2022/03/23 02:51:27;;;;;;;98.88;43.88;;;;;;;2.30;54.25;101863.41;5034199;28;20018;-75
2022/03/23 03:02:41;;;;;;;93.63;42.70;;;;;;;2.12;54.96;101864.00;5039036;28;20099;-75
2022/03/23 03:05:12;;;;;;;96.82;42.95;;;;;;;2.13;55.26;101864.81;5035860;28;20102;-75
2022/03/23 03:10:24;;;;;;;97.82;41.85;;;;;;;2.22;55.98;101856.88;5025175;28;20048;-77
2022/03/23 03:12:51;;;;;;;89.43;42.75;;;;;;;2.38;55.79;101851.84;5036095;28;20138;-76
2022/03/23 03:15:19;;;;;;;100.25;42.60;;;;;;;2.42;55.47;101849.88;5019240;28;20025;-75
2022/03/23 03:17:48;;;;;;;90.78;44.17;;;;;;;2.51;55.82;101855.22;5035977;28;20120;-76
2022/03/23 03:20:23;;;;;;;109.05;48.55;;;;;;;2.53;55.33;101850.00;5053450;28;20055;-77
2022/03/23 03:22:48;;;;;;;104.40;48.38;;;;;;;2.53;55.08;101839.56;5053370;28;20165;-75
2022/03/23 03:25:16;;;;;;;99.05;45.95;;;;;;;2.60;55.03;101856.50;5053121;28;20020;-75
2022/03/23 03:27:42;;;;;;;96.03;44.65;;;;;;;2.65;54.63;101849.72;5018723;28;20469;-76
2022/03/23 03:30:11;;;;;;;115.97;53.03;;;;;;;2.66;54.89;101850.53;5018729;28;20021;-76
2022/03/23 03:32:37;;;;;;;93.10;45.03;;;;;;;2.64;54.57;101850.91;5053334;28;20024;-75
2022/03/23 03:35:04;;;;;;;99.05;44.58;;;;;;;2.61;54.61;101848.88;5035426;28;20086;-75
2022/03/23 03:37:30;;;;;;;103.07;47.63;;;;;;;2.57;54.77;101843.22;5035222;28;20144;-74
2022/03/23 03:39:59;;;;;;;106.57;48.20;;;;;;;2.54;54.66;101844.00;5018766;28;20485;-77
2022/03/23 03:42:26;;;;;;;104.38;46.28;;;;;;;2.49;54.74;101849.16;5034892;28;20021;-76
2022/03/23 03:44:52;;;;;;;103.20;46.65;;;;;;;2.47;54.93;101840.28;5018969;28;20025;-75
2022/03/23 03:47:19;;;;;;;94.45;43.90;;;;;;;2.48;54.75;101844.72;5058324;28;20063;-75
2022/03/23 03:49:53;;;;;;;97.20;46.10;;;;;;;2.48;55.17;101844.72;5032546;28;20056;-75
2022/03/23 03:52:19;;;;;;;99.95;45.35;;;;;;;2.20;54.95;101791.84;5045242;28;20017;-76
2022/03/23 03:54:45;;;;;;;100.32;44.72;;;;;;;2.49;54.82;101826.66;5047563;28;20027;-75
2022/03/23 03:57:11;;;;;;;95.43;43.72;;;;;;;2.47;54.78;101824.22;5059605;28;20080;-76
2022/03/23 03:59:37;;;;;;;106.85;47.95;;;;;;;2.44;54.82;101825.00;5039610;28;20025;-76
2022/03/23 04:02:19;;;;;;;113.93;47.47;;;;;;;2.43;55.28;101834.63;5057396;28;20104;-74
2022/03/23 04:04:44;;;;;;;107.28;50.45;;;;;;;2.34;55.07;101828.50;5053945;28;20032;-75
2022/03/23 04:07:10;;;;;;;107.05;46.72;;;;;;;2.29;54.72;101828.06;5052696;28;20029;-75
2022/03/23 04:09:37;;;;;;;102.70;44.15;;;;;;;2.13;54.81;101829.09;5053302;28;20025;-75
2022/03/23 04:12:08;;;;;;;105.70;47.42;;;;;;;2.10;55.23;101831.84;5053139;28;20102;-76
2022/03/23 04:14:35;;;;;;;92.63;44.20;;;;;;;2.05;55.53;101835.00;5035965;28;20025;-76
2022/03/23 04:17:03;;;;;;;94.15;42.40;;;;;;;2.02;55.81;101830.94;5063346;28;20033;-77
2022/03/23 04:19:29;;;;;;;95.82;44.13;;;;;;;2.10;56.15;101845.91;5067858;28;20090;-76
2022/03/23 04:21:55;;;;;;;105.25;46.88;;;;;;;2.09;55.89;101844.28;5052710;28;20025;-76
2022/03/23 04:24:22;;;;;;;103.85;47.50;;;;;;;2.05;56.25;101851.88;5063924;28;20021;-74
2022/03/23 04:26:48;;;;;;;102.35;47.80;;;;;;;1.95;56.17;101844.13;5037074;28;20040;-76
2022/03/23 04:29:15;;;;;;;101.47;48.50;;;;;;;1.91;56.41;101854.50;5037769;28;20037;-75
2022/03/23 04:31:41;;;;;;;107.22;47.50;;;;;;;1.89;56.29;101860.50;5058530;28;20036;-77
2022/03/23 04:34:09;;;;;;;99.45;45.17;;;;;;;1.78;56.20;101851.13;5061971;28;20036;-77
2022/03/23 04:36:39;;;;;;;105.32;47.22;;;;;;;1.70;56.56;101853.03;5061145;28;20021;-75
2022/03/23 04:39:04;;;;;;;113.15;46.78;;;;;;;1.64;56.68;101857.34;5062637;28;20021;-76
2022/03/23 04:41:31;;;;;;;99.03;47.55;;;;;;;1.54;57.01;101843.97;5044768;28;20549;-74
2022/03/23 04:43:56;;;;;;;103.03;46.80;;;;;;;1.54;56.96;101862.81;5044979;28;20029;-76
2022/03/23 04:46:22;;;;;;;104.15;47.15;;;;;;;1.49;57.88;101863.13;5063894;28;20102;-77
2022/03/23 04:48:55;;;;;;;100.53;46.92;;;;;;;1.45;57.35;101853.84;5062059;28;20032;-76
2022/03/23 04:51:21;;;;;;;97.78;47.42;;;;;;;1.43;58.04;101853.44;5043542;28;20039;-76
2022/03/23 04:53:46;;;;;;;104.57;47.33;;;;;;;1.46;58.25;101864.72;5024348;28;20025;-74
2022/03/23 04:56:12;;;;;;;111.32;47.38;;;;;;;1.49;58.13;101860.31;5056240;28;20025;-75
2022/03/23 04:58:38;;;;;;;100.15;48.15;;;;;;;1.45;57.44;101857.47;5017914;28;20140;-75
2022/03/23 05:01:05;;;;;;;108.22;49.40;;;;;;;1.43;57.96;101857.03;5035363;28;20125;-75
2022/03/23 05:03:32;;;;;;;104.75;47.92;;;;;;;1.45;58.10;101856.66;5035964;28;20103;-75
2022/03/23 05:06:00;;;;;;;105.20;49.13;;;;;;;1.43;58.32;101851.41;5018290;28;20052;-76
2022/03/23 05:08:26;;;;;;;100.80;48.35;;;;;;;1.50;58.37;101856.34;5036325;28;20033;-76
2022/03/23 05:10:53;;;;;;;100.80;48.55;;;;;;;1.48;58.79;101850.31;5034591;28;20026;-77
2022/03/23 05:13:20;;;;;;;106.30;49.50;;;;;;;1.47;58.54;101852.31;5034701;28;20049;-76
2022/03/23 05:15:45;;;;;;;108.65;49.60;;;;;;;1.45;58.33;101846.25;5035787;28;20091;-75
2022/03/23 05:18:11;;;;;;;105.80;49.33;;;;;;;1.56;58.68;101855.66;5030046;28;20041;-77
2022/03/23 05:20:38;;;;;;;108.85;48.53;;;;;;;1.60;58.98;101850.06;5023242;28;20018;-76
2022/03/23 05:23:03;;;;;;;111.43;50.75;;;;;;;1.63;58.85;101854.91;4983850;28;20133;-75
2022/03/23 05:25:30;;;;;;;111.68;51.33;;;;;;;1.45;58.17;101815.38;5024409;28;20116;-74
2022/03/23 05:27:59;;;;;;;98.72;48.72;;;;;;;1.68;58.55;101843.34;5026315;28;20025;-74
2022/03/23 05:30:25;;;;;;;103.60;47.65;;;;;;;1.79;58.97;101849.94;5035448;28;20022;-76
2022/03/23 05:32:51;;;;;;;97.00;48.10;;;;;;;1.87;58.51;101853.66;5034272;28;20032;-76
2022/03/23 05:35:17;;;;;;;106.63;51.65;;;;;;;1.91;58.16;101840.47;5034521;28;20029;-76
2022/03/23 05:37:43;;;;;;;113.85;50.72;;;;;;;1.98;58.37;101858.19;5033145;28;20034;-74
2022/03/23 05:40:10;;;;;;;129.80;52.30;;;;;;;2.00;58.36;101844.59;5034177;28;20163;-75
2022/03/23 05:42:51;;;;;;;117.60;51.65;;;;;;;2.10;58.71;101854.34;5034801;28;20021;-75
2022/03/23 05:45:17;;;;;;;118.22;51.03;;;;;;;2.14;58.22;101849.56;5034293;28;20146;-75
2022/03/23 05:47:43;;;;;;;129.00;51.92;;;;;;;2.17;58.06;101846.00;5017709;28;20435;-75
2022/03/23 05:50:10;;;;;;;130.15;53.35;;;;;;;2.22;57.96;101848.44;5017643;28;20513;-76
2022/03/23 05:52:56;;;;;;;115.65;51.45;;;;;;;2.23;58.03;101840.81;5034908;28;20029;-75
2022/03/23 05:55:22;;;;;;;115.93;47.67;;;;;;;2.34;57.64;101853.81;5032524;28;20036;-75
2022/03/23 05:57:47;;;;;;;134.20;51.88;;;;;;;2.38;57.81;101853.84;5045415;28;20071;-77
2022/03/23 06:00:14;;;;;;;129.35;51.13;;;;;;;2.48;57.76;101848.34;5055419;28;20520;-75
2022/03/23 06:02:40;;;;;;;131.00;51.28;;;;;;;2.50;57.77;101840.34;5055000;28;20031;-75
2022/03/23 06:05:09;;;;;;;109.53;50.00;;;;;;;2.67;57.64;101841.69;5055719;28;20032;-75
2022/03/23 06:07:35;;;;;;;126.00;52.65;;;;;;;2.74;57.43;101847.41;5037735;28;20036;-75
2022/03/23 06:10:07;;;;;;;94.47;46.60;;;;;;;2.98;57.31;101846.00;5038105;28;20029;-76
2022/03/23 06:12:34;;;;;;;101.60;47.22;;;;;;;3.42;56.25;101851.56;5038184;28;20028;-74
2022/03/23 06:15:01;;;;;;;96.90;47.13;;;;;;;3.66;55.61;101845.28;5037547;28;20033;-76
2022/03/23 06:17:28;;;;;;;101.35;46.10;;;;;;;4.00;54.89;101847.84;5022573;28;20076;-77
2022/03/23 06:20:02;;;;;;;92.07;44.55;;;;;;;5.21;52.69;101847.69;5037095;28;20032;-77
2022/03/23 06:22:36;;;;;;;89.72;42.72;;;;;;;7.82;48.15;101838.88;5036763;28;20021;-76
2022/03/23 06:25:02;;;;;;;98.60;42.17;;;;;;;10.59;42.80;101832.16;5054847;28;20029;-78
2022/03/23 06:27:28;;;;;;;94.47;44.00;;;;;;;13.24;37.81;101823.03;5039375;28;20078;-78
2022/03/23 06:29:55;;;;;;;85.35;43.80;;;;;;;16.02;33.16;101806.63;5037594;28;20021;-77
2022/03/23 06:32:22;;;;;;;85.20;42.33;;;;;;;18.45;29.33;101806.22;5055504;28;20037;-78
2022/03/23 06:34:48;;;;;;;107.00;46.70;;;;;;;20.68;26.34;101801.31;5021320;28;20025;-77
2022/03/23 06:37:14;;;;;;;98.15;45.83;;;;;;;22.64;23.51;101787.22;5037565;28;20036;-80
2022/03/23 06:39:41;;;;;;;87.57;45.03;;;;;;;23.87;20.61;101781.94;5056054;28;20051;-81
2022/03/23 06:42:08;;;;;;;95.35;47.95;;;;;;;25.29;19.50;101790.63;5063314;28;20028;-81
2022/03/23 06:44:34;;;;;;;99.82;46.55;;;;;;;26.40;17.55;101791.34;5058364;28;20021;-81
2022/03/23 06:47:01;;;;;;;83.90;46.67;;;;;;;27.47;16.90;101788.94;5040221;28;20058;-81
2022/03/23 06:49:29;;;;;;;86.78;48.08;;;;;;;28.39;15.39;101788.00;5058456;28;20047;-83
2022/03/23 06:51:54;;;;;;;90.07;47.03;;;;;;;28.97;14.59;101791.34;5056086;28;20021;-76
2022/03/23 06:54:20;;;;;;;82.28;48.13;;;;;;;29.50;14.70;101800.56;5054270;28;20039;-76
2022/03/23 06:56:51;;;;;;;80.63;46.83;;;;;;;28.30;15.08;101809.81;5054684;28;20032;-76
2022/03/23 06:59:25;;;;;;;79.68;48.45;;;;;;;25.94;16.72;101807.94;5054318;28;20482;-77
2022/03/23 07:01:51;;;;;;;85.97;47.97;;;;;;;26.27;17.08;101800.03;5053554;28;20045;-73
2022/03/23 07:04:17;;;;;;;74.90;45.35;;;;;;;27.77;16.40;101800.31;5054278;28;20033;-84
2022/03/23 07:06:43;;;;;;;75.35;46.08;;;;;;;29.23;15.06;101796.25;5037769;28;20021;-75
2022/03/23 07:11:56;;;;;;;82.32;44.83;;;;;;;32.65;12.89;101800.31;5038383;28;20442;-77
2022/03/23 07:14:22;;;;;;;80.20;45.20;;;;;;;34.06;11.44;101788.31;5036504;28;20075;-77
2022/03/23 07:16:50;;;;;;;70.32;45.13;;;;;;;35.32;10.18;101789.81;5035130;28;20017;-76
2022/03/23 07:19:16;;;;;;;77.75;46.45;;;;;;;35.96;9.84;101778.47;5051985;28;20032;-75
2022/03/23 07:21:41;;;;;;;72.88;45.42;;;;;;;36.46;8.75;101785.31;5014741;28;20479;-76
2022/03/23 07:24:07;;;;;;;83.68;46.47;;;;;;;36.52;8.60;101788.69;5014445;28;20027;-76
2022/03/23 07:26:36;;;;;;;88.40;46.20;;;;;;;35.79;9.14;101794.25;4998190;28;20131;-76
2022/03/23 07:29:03;;;;;;;81.32;45.00;;;;;;;35.11;9.63;101784.41;5015124;28;20027;-78
2022/03/23 07:31:30;;;;;;;73.93;44.30;;;;;;;34.10;10.16;101793.78;5033690;28;20458;-72
2022/03/23 07:33:57;;;;;;;71.05;44.40;;;;;;;33.15;10.75;101794.41;5033942;28;20021;-71
2022/03/23 07:36:23;;;;;;;72.88;43.95;;;;;;;32.34;11.17;101795.94;5016147;28;20037;-71
2022/03/23 07:38:48;;;;;;;71.28;40.30;;;;;;;32.10;11.55;101788.59;4999173;28;20367;-73
2022/03/23 07:41:14;;;;;;;67.03;41.20;;;;;;;32.22;11.51;101789.72;5031141;28;20490;-73
2022/03/23 07:43:42;;;;;;;71.35;41.67;;;;;;;32.20;11.09;101777.75;5033101;28;20037;-72
2022/03/23 07:46:08;;;;;;;66.10;39.78;;;;;;;32.14;11.23;101791.94;5032846;28;20040;-71
2022/03/23 07:48:35;;;;;;;70.22;41.30;;;;;;;32.04;10.92;101788.00;5014937;28;20030;-73
2022/03/23 07:51:01;;;;;;;68.10;39.10;;;;;;;31.87;11.72;101787.91;5032793;28;20013;-72
2022/03/23 07:53:28;;;;;;;71.07;42.05;;;;;;;31.30;11.91;101786.22;5033024;28;20035;-73
2022/03/23 07:55:55;;;;;;;74.57;41.75;;;;;;;30.85;12.23;101795.84;5015175;28;20025;-74
2022/03/23 07:58:24;;;;;;;70.10;41.70;;;;;;;30.61;11.96;101780.91;4994863;28;20038;-72
2022/03/23 08:00:51;;;;;;;64.70;39.53;;;;;;;30.17;12.36;101777.25;5011347;28;20029;-72
2022/03/23 08:03:16;;;;;;;64.97;38.72;;;;;;;29.62;13.01;101777.53;5012642;28;20505;-72
2022/03/23 08:05:44;;;;;;;67.20;39.55;;;;;;;28.99;12.98;101767.31;5013238;28;20108;-73
2022/03/23 08:08:10;;;;;;;64.18;39.55;;;;;;;27.84;14.66;101782.84;5015702;28;20101;-74
2022/03/23 08:10:36;;;;;;;76.05;39.65;;;;;;;27.02;15.37;101783.94;4999497;28;20113;-72
2022/03/23 08:13:03;;;;;;;67.07;39.00;;;;;;;27.15;15.23;101776.50;5016732;28;20502;-73
2022/03/23 08:15:30;;;;;;;80.80;41.40;;;;;;;27.60;14.64;101776.44;5015970;28;20061;-72
2022/03/23 08:18:10;;;;;;;79.35;40.47;;;;;;;27.85;14.79;101766.03;5017262;28;20026;-71
2022/03/23 08:20:37;;;;;;;66.80;37.28;;;;;;;28.14;14.30;101773.66;5015882;28;20026;-73
2022/03/23 08:23:06;;;;;;;71.45;36.40;;;;;;;28.43;14.27;101770.84;5016890;28;20423;-72
2022/03/23 08:25:32;;;;;;;55.85;33.17;;;;;;;28.50;13.60;101770.94;5015501;28;20030;-73
2022/03/23 08:27:59;;;;;;;85.70;37.08;;;;;;;28.50;13.89;101773.09;5016802;28;20032;-72
2022/03/23 08:30:33;;;;;;;67.13;35.47;;;;;;;28.56;13.60;101776.66;5017127;28;20064;-72
2022/03/23 08:33:01;;;;;;;64.68;36.55;;;;;;;28.63;14.07;101770.88;5016695;28;20033;-73
2022/03/23 08:35:27;;;;;;;59.67;36.63;;;;;;;28.75;13.94;101759.66;5015699;28;20022;-72
2022/03/23 08:37:53;;;;;;;54.10;34.47;;;;;;;28.43;14.12;101765.78;5016628;28;20037;-72
2022/03/23 08:40:19;;;;;;;62.33;37.17;;;;;;;28.27;14.63;101766.97;5016860;28;20086;-72
2022/03/23 08:42:46;;;;;;;65.22;36.45;;;;;;;28.09;15.23;101751.09;4999393;28;20531;-73
2022/03/23 08:45:12;;;;;;;102.70;40.65;;;;;;;27.93;15.26;101758.91;4999108;28;20100;-72
2022/03/23 08:47:39;;;;;;;89.47;38.47;;;;;;;27.80;15.08;101755.25;5015456;28;20038;-73
2022/03/23 08:50:07;;;;;;;63.60;37.97;;;;;;;27.61;15.29;101740.75;4998561;28;20025;-72
2022/03/23 08:52:34;;;;;;;56.55;37.08;;;;;;;27.51;14.93;101750.53;5015251;28;20025;-72
2022/03/23 08:55:01;;;;;;;62.15;36.40;;;;;;;27.22;14.81;101746.59;5014902;28;20030;-72
2022/03/23 08:57:28;;;;;;;77.88;37.55;;;;;;;26.98;15.16;101751.31;4998695;28;20160;-73
2022/03/23 08:59:53;;;;;;;55.60;33.50;;;;;;;26.74;14.72;101748.50;5016249;28;20370;-72
2022/03/23 09:02:20;;;;;;;53.90;32.97;;;;;;;26.28;15.44;101749.81;5017163;28;20176;-73
2022/03/23 09:04:46;;;;;;;61.58;34.97;;;;;;;25.91;16.60;101749.81;5016959;28;20466;-72
2022/03/23 09:07:13;;;;;;;50.55;33.10;;;;;;;25.72;16.58;101741.84;5016596;28;20029;-74
2022/03/23 09:09:40;;;;;;;50.92;31.77;;;;;;;25.50;17.23;101732.56;5016610;28;20084;-73
2022/03/23 09:12:06;;;;;;;47.95;30.00;;;;;;;25.26;16.92;101736.31;5015943;28;20382;-73
2022/03/23 09:14:42;;;;;;;47.10;27.90;;;;;;;25.15;17.02;101736.44;5018849;28;20490;-73
2022/03/23 09:17:09;;;;;;;49.40;29.52;;;;;;;25.00;17.67;101724.41;5022939;28;20032;-75
2022/03/23 09:19:37;;;;;;;57.20;28.85;;;;;;;24.74;17.35;101721.97;5015573;28;20488;-72
2022/03/23 09:22:02;;;;;;;48.20;27.52;;;;;;;24.51;17.26;101719.28;5015599;28;20125;-73
2022/03/23 09:24:30;;;;;;;44.25;28.25;;;;;;;24.49;17.79;101727.78;5014739;28;20113;-74
2022/03/23 09:26:56;;;;;;;36.08;25.95;;;;;;;24.39;17.29;101723.63;4981904;28;20032;-73
2022/03/23 09:29:22;;;;;;;45.38;26.48;;;;;;;24.27;17.31;101721.34;5014987;28;20475;-75
2022/03/23 09:31:49;;;;;;;45.53;27.52;;;;;;;24.17;17.84;101715.06;5014699;28;20021;-73
2022/03/23 09:34:16;;;;;;;48.78;29.70;;;;;;;24.01;17.36;101713.81;5015054;28;20026;-74
2022/03/23 09:39:27;;;;;;;46.00;27.67;;;;;;;23.73;17.64;101692.81;5015803;28;20032;-72
2022/03/23 09:41:53;;;;;;;45.65;29.73;;;;;;;23.61;17.97;101700.03;5019704;28;20022;-72
2022/03/23 09:44:30;;;;;;;48.97;30.77;;;;;;;23.60;18.51;101698.47;5016834;28;20094;-74
2022/03/23 09:46:57;;;;;;;38.20;24.77;;;;;;;23.61;17.89;101697.13;5028458;28;20050;-72
2022/03/23 09:49:24;;;;;;;37.83;23.90;;;;;;;23.60;17.89;101702.16;5022222;28;20484;-74
2022/03/23 09:51:53;;;;;;;47.70;25.80;;;;;;;23.48;17.92;101694.84;5017405;28;20036;-72
2022/03/23 09:54:22;;;;;;;43.47;24.65;;;;;;;23.40;17.28;101690.06;5035160;28;20060;-72
2022/03/23 09:56:48;;;;;;;40.92;24.75;;;;;;;23.36;17.61;101689.56;5036255;28;20495;-73
2022/03/23 09:59:16;;;;;;;46.95;25.65;;;;;;;23.29;17.67;101681.41;5037197;28;20033;-72
2022/03/23 10:01:50;;;;;;;41.55;25.92;;;;;;;23.19;18.17;101684.59;5036793;28;20493;-73
2022/03/23 10:04:49;;;;;;;48.25;23.55;;;;;;;23.21;19.14;101686.97;5036285;28;20242;-73
2022/03/23 10:08:02;;;;;;;50.42;24.30;;;;;;;23.15;19.08;101684.09;5053380;28;20025;-72
2022/03/23 10:11:24;;;;;;;44.17;25.85;;;;;;;23.13;17.63;101680.16;5024057;28;20469;-72
2022/03/23 10:14:28;;;;;;;36.08;25.05;;;;;;;22.68;17.29;101659.91;5054348;28;20131;-74
2022/03/23 10:17:30;;;;;;;39.35;22.50;;;;;;;22.58;19.15;101676.03;5049189;28;20032;-73
2022/03/23 10:20:05;;;;;;;33.75;22.00;;;;;;;22.46;19.53;101673.66;5054350;28;20027;-74
2022/03/23 10:22:30;;;;;;;36.88;22.42;;;;;;;22.48;18.61;101673.91;5054440;28;20029;-73
2022/03/23 10:25:13;;;;;;;39.75;22.10;;;;;;;22.31;19.27;101677.63;5055082;28;20028;-73
2022/03/23 10:27:38;;;;;;;34.75;18.67;;;;;;;22.32;18.97;101672.59;5035088;28;20049;-73
2022/03/23 10:30:06;;;;;;;33.70;21.33;;;;;;;22.22;18.67;101628.53;5016713;28;20036;-73
2022/03/23 10:32:38;;;;;;;36.25;20.60;;;;;;;22.47;19.26;101657.81;5025681;28;20064;-72
2022/03/23 10:35:10;;;;;;;34.75;20.48;;;;;;;22.45;19.52;101651.75;5050392;28;20041;-74
2022/03/23 10:37:35;;;;;;;;;;;;;;;22.34;18.78;101653.34;5040303;28;20096;-76
2022/03/23 10:40:14;;;;;;;39.88;20.88;;;;;;;22.30;19.53;101647.00;5055356;28;19948;-77
2022/03/23 10:42:55;;;;;;;39.38;21.13;;;;;;;22.22;18.36;101642.25;5055691;28;20106;-75
2022/03/23 10:45:21;;;;;;;;;;;;;;;22.20;18.49;101653.63;5032343;28;20073;-75
2022/03/23 10:47:48;;;;;;;41.08;20.70;;;;;;;22.09;18.75;101642.81;5035792;28;19916;-73
2022/03/23 10:50:23;;;;;;;37.03;18.13;;;;;;;22.08;19.13;101634.63;5018322;28;20462;-76
2022/03/23 10:53:05;;;;;;;47.33;20.67;;;;;;;22.07;18.76;101622.22;5035906;28;20080;-74
2022/03/23 10:55:38;;;;;;;22.92;15.23;;;;;;;22.20;19.58;101621.69;5037596;28;20041;-78
2022/03/23 10:58:20;;;;;;;31.73;15.50;;;;;;;22.09;19.09;101627.50;5051768;28;20084;-78
2022/03/23 11:00:46;;;;;;;31.50;14.70;;;;;;;21.95;18.21;101614.84;5038177;28;20116;-78
2022/03/23 11:03:11;;;;;;;24.95;15.07;;;;;;;21.86;18.49;101612.16;5052528;28;20068;-77
2022/03/23 11:05:46;;;;;;;24.10;15.48;;;;;;;21.73;17.78;101603.19;5040036;28;20025;-77
2022/03/23 11:08:14;;;;;;;25.42;15.57;;;;;;;21.59;17.71;101604.22;5049942;28;20097;-78
2022/03/23 11:16:58;;;;;;;28.15;13.63;;;;;;;21.48;20.96;101590.47;5035746;28;20044;-77
2022/03/23 11:19:26;;;;;;;17.15;10.98;;;;;;;21.51;19.72;101584.41;5021736;28;20033;-77
2022/03/23 11:22:12;;;;;;;18.88;12.10;;;;;;;21.53;19.58;101573.09;5033107;28;20030;-76
2022/03/23 11:24:43;;;;;;;27.45;12.88;;;;;;;21.58;19.01;101582.31;5001687;28;20092;-74
2022/03/23 11:27:19;;;;;;;28.92;13.15;;;;;;;21.58;19.14;101576.53;5052631;28;20029;-77
2022/03/23 11:30:06;;;;;;;17.98;11.48;;;;;;;21.59;19.74;101570.22;5033881;28;20069;-79
2022/03/23 11:32:37;;;;;;;23.05;13.02;;;;;;;21.57;20.10;101564.13;5043639;28;20040;-80
2022/03/23 11:35:10;;;;;;;26.85;12.85;;;;;;;21.50;19.48;101553.06;5043083;28;20052;-82
2022/03/23 11:37:48;;;;;;;28.80;13.07;;;;;;;21.49;18.01;101552.28;5058713;28;20033;-82
2022/03/23 11:40:15;;;;;;;19.92;12.15;;;;;;;21.35;18.20;101550.41;5025455;28;20020;-81
2022/03/23 11:42:41;;;;;;;19.77;11.63;;;;;;;21.25;17.97;101546.19;5026078;28;20033;-77